Terminal Aerodrome Forecast
Issued by NWS

Home | Current Version | Previous Version | Text Only | Print | Product List | Glossary On
Versions: 1 2 3 4 5 6 7 8 9 10 11 12 13 14 15 16 17 18 19
000
FTUS45 KGJT 011720
TAFVEL
TAF
KVEL 011720Z 0118/0218 05016G30KT P6SM SCT090
     FM011900 05016G25KT P6SM BKN100
     FM020400 04010KT P6SM BKN130
     FM021000 03006KT P6SM BKN150=

USA.gov is the U.S. government's official web portal to all federal, state and local government web resources and services.